createdAt,value
2023-07-31T00:00:19.482Z,71.73
2023-07-31T00:02:46.519Z,71.64
2023-07-31T00:05:12.893Z,71.48
2023-07-31T00:07:39.720Z,71.56
2023-07-31T00:10:07.756Z,71.69
2023-07-31T00:12:34.173Z,71.42
2023-07-31T00:15:01.684Z,71.48
2023-07-31T00:17:28.614Z,71.52
2023-07-31T00:19:55.167Z,71.68
2023-07-31T00:22:56.439Z,71.98
2023-07-31T00:25:22.914Z,71.71
2023-07-31T00:27:49.338Z,71.32
2023-07-31T00:30:16.246Z,71.64
2023-07-31T00:32:42.834Z,71.97
2023-07-31T00:35:11.659Z,71.80
2023-07-31T00:37:38.142Z,71.90
2023-07-31T00:40:05.119Z,71.87
2023-07-31T00:42:32.333Z,71.92
2023-07-31T00:44:58.862Z,71.68
2023-07-31T00:47:25.699Z,71.98
2023-07-31T00:49:52.557Z,71.63
2023-07-31T00:52:31.665Z,72.18
2023-07-31T00:55:01.727Z,72.15
2023-07-31T00:57:28.238Z,72.93
2023-07-31T00:59:55.933Z,73.41
2023-07-31T01:05:44.756Z,73.46
2023-07-31T01:08:24.963Z,73.59
2023-07-31T01:11:01.444Z,73.62
2023-07-31T01:13:28.907Z,73.25
2023-07-31T01:15:55.857Z,73.18
2023-07-31T01:18:22.758Z,73.21
2023-07-31T01:20:59.263Z,72.87
2023-07-31T01:23:45.179Z,72.64
2023-07-31T01:26:21.967Z,73.08
2023-07-31T01:29:09.806Z,72.60
2023-07-31T01:31:37.662Z,72.29
2023-07-31T01:34:04.881Z,72.94
2023-07-31T01:36:32.636Z,73.06
2023-07-31T01:39:03.106Z,72.83
2023-07-31T01:41:29.488Z,73.08
2023-07-31T01:43:56.715Z,73.24
2023-07-31T01:46:23.211Z,73.35
2023-07-31T01:48:49.668Z,73.09
2023-07-31T01:51:16.134Z,72.84
2023-07-31T01:53:42.491Z,73.25
2023-07-31T01:56:09.010Z,73.09
2023-07-31T01:58:35.445Z,73.35
2023-07-31T02:01:01.936Z,73.17
2023-07-31T02:03:28.633Z,73.07
2023-07-31T02:05:56.011Z,72.85
2023-07-31T02:08:22.531Z,72.68
2023-07-31T02:10:49.338Z,72.60
2023-07-31T02:13:16.194Z,72.55
2023-07-31T02:15:42.611Z,72.43
2023-07-31T02:18:10.431Z,72.28
2023-07-31T02:20:36.988Z,72.29
2023-07-31T02:23:03.494Z,72.15
2023-07-31T02:25:30.141Z,72.31
2023-07-31T02:27:56.909Z,72.58
2023-07-31T02:30:23.417Z,72.60
2023-07-31T02:32:50.246Z,72.83
2023-07-31T02:35:17.133Z,72.78
2023-07-31T02:37:43.895Z,72.52
2023-07-31T02:40:10.960Z,72.43
2023-07-31T02:42:37.397Z,72.70
2023-07-31T02:45:04.195Z,72.96
2023-07-31T02:47:30.659Z,73.04
2023-07-31T02:49:57.457Z,73.61
2023-07-31T02:52:23.719Z,73.40
2023-07-31T02:54:50.350Z,73.51
2023-07-31T02:57:17.497Z,73.45
2023-07-31T02:59:45.993Z,74.01
2023-07-31T03:02:13.580Z,73.97
2023-07-31T03:04:40.510Z,73.60
2023-07-31T03:07:06.943Z,74.15
2023-07-31T03:09:33.720Z,74.04
2023-07-31T03:12:00.656Z,73.72
2023-07-31T03:14:30.270Z,73.54
2023-07-31T03:16:56.804Z,73.97
2023-07-31T03:19:24.048Z,73.85
2023-07-31T03:21:50.580Z,73.54
2023-07-31T03:24:16.908Z,73.59
2023-07-31T03:26:43.783Z,73.79
2023-07-31T03:29:10.379Z,73.64
2023-07-31T03:31:36.799Z,74.03
2023-07-31T03:34:03.842Z,74.45
2023-07-31T03:36:30.266Z,74.09
2023-07-31T03:38:56.630Z,74.53
2023-07-31T03:41:24.164Z,74.71
2023-07-31T03:43:56.725Z,74.53
2023-07-31T03:46:24.427Z,74.16
2023-07-31T03:48:51.349Z,73.98
2023-07-31T03:51:18.578Z,74.17
2023-07-31T03:54:01.345Z,74.61
2023-07-31T03:56:27.852Z,74.50
2023-07-31T03:58:54.218Z,74.14
2023-07-31T04:01:21.424Z,74.24
2023-07-31T04:03:47.766Z,74.05
2023-07-31T04:06:14.381Z,74.49
2023-07-31T04:08:41.342Z,74.53
2023-07-31T04:11:07.959Z,74.51
2023-07-31T04:13:34.414Z,74.96
2023-07-31T04:16:01.482Z,74.87
2023-07-31T04:18:27.836Z,74.51
2023-07-31T04:20:54.290Z,74.74
2023-07-31T04:23:20.936Z,74.69
2023-07-31T04:25:47.425Z,74.44
2023-07-31T04:28:13.861Z,74.23
2023-07-31T04:30:41.376Z,74.23
2023-07-31T04:33:07.822Z,74.56
2023-07-31T04:35:34.680Z,74.41
2023-07-31T04:38:01.921Z,74.73
2023-07-31T04:40:28.318Z,74.63
2023-07-31T04:42:54.877Z,74.24
2023-07-31T04:45:21.508Z,74.02
2023-07-31T04:47:47.960Z,74.19
2023-07-31T04:50:14.317Z,74.17
2023-07-31T04:52:40.873Z,73.68
2023-07-31T04:55:07.728Z,73.78
2023-07-31T04:57:34.365Z,73.45
2023-07-31T05:00:01.017Z,73.31
2023-07-31T05:02:27.587Z,73.57
2023-07-31T05:04:54.172Z,73.21
2023-07-31T05:07:20.872Z,72.89
2023-07-31T05:09:47.457Z,72.63
2023-07-31T05:12:13.945Z,72.44
2023-07-31T05:14:40.779Z,72.42
2023-07-31T05:17:07.468Z,72.35
2023-07-31T05:19:34.108Z,72.45
2023-07-31T05:22:01.125Z,72.46
2023-07-31T05:24:27.628Z,72.42
2023-07-31T05:26:54.624Z,72.06
2023-07-31T05:29:21.597Z,72.05
2023-07-31T05:31:48.320Z,72.11
2023-07-31T05:34:15.077Z,71.93
2023-07-31T05:36:42.770Z,71.61
2023-07-31T05:39:09.309Z,71.46
2023-07-31T05:41:36.539Z,71.30
2023-07-31T05:44:03.441Z,71.04
2023-07-31T05:46:30.065Z,71.03
2023-07-31T05:48:56.658Z,71.24
2023-07-31T05:51:23.380Z,70.98
2023-07-31T05:53:49.701Z,70.70
2023-07-31T05:56:19.057Z,70.78
2023-07-31T05:58:45.702Z,70.52
2023-07-31T06:01:12.124Z,70.39
2023-07-31T06:03:39.034Z,70.19
2023-07-31T06:06:06.448Z,69.88
2023-07-31T06:08:32.847Z,69.65
2023-07-31T06:10:59.671Z,69.69
2023-07-31T06:13:26.523Z,69.54
2023-07-31T06:15:52.969Z,69.47
2023-07-31T06:18:19.556Z,69.20
2023-07-31T06:20:46.008Z,69.11
2023-07-31T06:23:12.481Z,69.12
2023-07-31T06:25:38.897Z,68.67
2023-07-31T06:28:08.109Z,68.64
2023-07-31T06:30:37.283Z,68.43
2023-07-31T06:33:03.763Z,68.19
2023-07-31T06:35:30.534Z,67.82
2023-07-31T06:37:56.925Z,67.43
2023-07-31T06:40:32.215Z,66.45
2023-07-31T06:42:58.633Z,66.22
2023-07-31T06:45:25.152Z,66.10
2023-07-31T06:47:52.200Z,65.51
2023-07-31T06:50:18.907Z,66.06
2023-07-31T06:52:45.207Z,65.53
2023-07-31T06:55:20.686Z,65.18
2023-07-31T06:57:48.141Z,64.26
2023-07-31T07:00:14.826Z,64.41
2023-07-31T07:02:42.148Z,64.09
2023-07-31T07:05:09.289Z,63.63
2023-07-31T07:07:36.447Z,63.68
2023-07-31T07:10:04.355Z,63.21
2023-07-31T07:12:31.706Z,63.29
2023-07-31T07:15:00.815Z,62.93
2023-07-31T07:17:30.561Z,62.85
2023-07-31T07:19:57.463Z,63.06
2023-07-31T07:25:37.597Z,61.60
2023-07-31T07:28:27.106Z,61.72
2023-07-31T07:34:33.475Z,60.62
2023-07-31T07:40:25.291Z,59.17
2023-07-31T07:46:02.631Z,59.54
2023-07-31T07:49:02.990Z,60.87
2023-07-31T07:55:14.274Z,59.68
2023-07-31T07:58:34.064Z,60.30
2023-07-31T08:01:43.133Z,60.54
2023-07-31T08:07:53.218Z,61.41
2023-07-31T08:11:36.474Z,61.43
2023-07-31T08:19:51.781Z,60.98
2023-07-31T08:22:18.631Z,60.91
2023-07-31T08:24:45.556Z,59.59
2023-07-31T08:27:12.453Z,58.97
2023-07-31T08:29:39.488Z,59.74
2023-07-31T08:32:07.011Z,59.77
2023-07-31T08:34:34.404Z,59.88
2023-07-31T08:37:01.193Z,59.49
2023-07-31T08:39:28.763Z,59.37
2023-07-31T08:42:00.693Z,57.66
2023-07-31T08:44:27.731Z,57.54
2023-07-31T08:46:55.815Z,57.52
2023-07-31T08:49:23.852Z,57.90
2023-07-31T08:51:51.633Z,58.30
2023-07-31T08:54:18.129Z,58.35
2023-07-31T08:56:46.057Z,58.97
2023-07-31T08:59:15.893Z,58.82
2023-07-31T09:01:50.256Z,58.36
2023-07-31T09:04:19.835Z,58.89
2023-07-31T09:06:49.293Z,58.43
2023-07-31T09:09:16.014Z,57.77
2023-07-31T09:11:42.922Z,58.14
2023-07-31T09:14:10.158Z,58.32
2023-07-31T09:16:37.211Z,57.09
2023-07-31T09:19:05.554Z,56.79
2023-07-31T09:21:32.300Z,56.96
2023-07-31T09:23:59.100Z,56.38
2023-07-31T09:26:36.037Z,55.78
2023-07-31T09:29:12.117Z,55.43
2023-07-31T09:31:45.838Z,55.73
2023-07-31T09:34:12.701Z,55.90
2023-07-31T09:36:47.667Z,56.12
2023-07-31T09:39:18.171Z,55.62
2023-07-31T09:41:48.017Z,54.75
2023-07-31T09:44:14.636Z,55.48
2023-07-31T09:46:41.627Z,55.55
2023-07-31T09:49:10.197Z,55.51
2023-07-31T09:51:39.297Z,54.77
2023-07-31T09:54:24.628Z,54.19
2023-07-31T09:56:51.282Z,53.37
2023-07-31T09:59:22.963Z,52.34
2023-07-31T10:01:51.788Z,52.18
2023-07-31T10:04:21.637Z,50.91
2023-07-31T10:06:51.074Z,50.98
2023-07-31T10:09:19.776Z,50.73
2023-07-31T10:12:00.411Z,51.14
2023-07-31T10:14:29.073Z,50.87
2023-07-31T10:16:57.143Z,51.07
2023-07-31T10:19:24.068Z,50.78
2023-07-31T10:21:51.446Z,50.89
2023-07-31T10:24:18.535Z,50.66
2023-07-31T10:26:47.906Z,51.01
2023-07-31T10:29:16.815Z,51.35
2023-07-31T10:31:46.239Z,51.22
2023-07-31T10:34:13.841Z,50.14
2023-07-31T10:36:40.979Z,50.77
2023-07-31T10:39:37.798Z,50.12
2023-07-31T10:42:11.386Z,50.63
2023-07-31T10:44:38.143Z,51.36
2023-07-31T10:47:05.053Z,51.38
2023-07-31T10:49:33.434Z,51.28
2023-07-31T10:52:04.226Z,50.93
2023-07-31T10:54:30.674Z,49.89
2023-07-31T10:56:59.482Z,49.23
2023-07-31T10:59:35.839Z,48.38
2023-07-31T11:02:04.811Z,48.15
2023-07-31T11:04:32.651Z,47.78
2023-07-31T11:07:05.760Z,47.66
2023-07-31T11:09:35.102Z,46.60
2023-07-31T11:12:01.772Z,46.96
2023-07-31T11:14:29.590Z,46.88
2023-07-31T11:16:56.723Z,47.33
2023-07-31T11:19:26.776Z,47.37
2023-07-31T11:21:54.091Z,47.65
2023-07-31T11:24:22.204Z,46.42
2023-07-31T11:26:51.283Z,45.55
2023-07-31T11:29:17.790Z,46.05
2023-07-31T11:31:45.122Z,47.10
2023-07-31T11:34:11.739Z,47.66
2023-07-31T11:36:38.236Z,47.43
2023-07-31T11:39:12.112Z,46.83
2023-07-31T11:41:42.217Z,46.03
2023-07-31T11:44:25.120Z,46.32
2023-07-31T11:46:54.148Z,45.63
2023-07-31T11:49:21.932Z,45.56
2023-07-31T11:51:48.607Z,45.46
2023-07-31T11:54:16.454Z,45.42
2023-07-31T11:56:44.923Z,45.62
2023-07-31T11:59:13.511Z,45.80
2023-07-31T12:01:40.437Z,46.05
2023-07-31T12:04:07.919Z,45.83
2023-07-31T12:06:38.569Z,46.19
2023-07-31T12:09:06.969Z,46.61
2023-07-31T12:11:47.355Z,46.44
2023-07-31T12:14:25.732Z,46.87
2023-07-31T12:17:01.946Z,45.65
2023-07-31T12:19:30.550Z,45.50
2023-07-31T12:21:57.954Z,45.96
2023-07-31T12:24:24.736Z,45.40
2023-07-31T12:26:52.553Z,45.30
2023-07-31T12:29:19.338Z,45.46
2023-07-31T12:31:46.443Z,45.24
2023-07-31T12:34:22.517Z,44.86
2023-07-31T12:36:51.685Z,45.03
2023-07-31T12:39:18.214Z,44.79
2023-07-31T12:41:45.388Z,45.57
2023-07-31T12:44:12.337Z,43.26
2023-07-31T12:46:39.300Z,44.85
2023-07-31T12:49:06.313Z,44.58
2023-07-31T12:51:32.894Z,44.41
2023-07-31T12:53:59.372Z,43.24
2023-07-31T12:56:26.222Z,42.94
2023-07-31T12:58:52.799Z,42.98
2023-07-31T13:01:19.445Z,43.65
2023-07-31T13:03:46.490Z,43.80
2023-07-31T13:06:13.604Z,43.53
2023-07-31T13:08:40.455Z,42.49
2023-07-31T13:11:07.117Z,42.32
2023-07-31T13:13:33.856Z,42.33
2023-07-31T13:16:00.565Z,42.28
2023-07-31T13:18:27.241Z,42.50
2023-07-31T13:20:54.277Z,42.84
2023-07-31T13:23:20.954Z,41.43
2023-07-31T13:25:47.595Z,40.84
2023-07-31T13:28:14.255Z,39.30
2023-07-31T13:30:40.725Z,39.84
2023-07-31T13:33:12.398Z,40.65
2023-07-31T13:36:00.459Z,41.50
2023-07-31T13:38:27.572Z,41.80
2023-07-31T13:40:54.103Z,41.34
2023-07-31T13:43:20.830Z,41.33
2023-07-31T13:45:47.521Z,41.60
2023-07-31T13:48:17.232Z,41.61
2023-07-31T13:50:43.669Z,42.05
2023-07-31T13:53:10.584Z,41.91
2023-07-31T13:55:37.125Z,42.10
2023-07-31T13:58:04.956Z,42.43
2023-07-31T14:00:32.084Z,42.85
2023-07-31T14:02:58.886Z,42.77
2023-07-31T14:05:26.061Z,42.54
2023-07-31T14:07:52.760Z,42.98
2023-07-31T14:10:19.443Z,42.77
2023-07-31T14:12:45.985Z,42.72
2023-07-31T14:15:13.270Z,43.41
2023-07-31T14:17:40.176Z,43.19
2023-07-31T14:20:07.721Z,43.59
2023-07-31T14:22:35.410Z,43.59
2023-07-31T14:25:03.422Z,43.71
2023-07-31T14:27:29.950Z,43.72
2023-07-31T14:29:57.644Z,43.69
2023-07-31T14:32:26.081Z,43.96
2023-07-31T14:34:53.271Z,44.32
2023-07-31T14:37:20.326Z,45.16
2023-07-31T14:39:46.813Z,44.84
2023-07-31T14:42:13.570Z,44.61
2023-07-31T14:44:40.399Z,44.25
2023-07-31T14:47:06.905Z,45.73
2023-07-31T14:49:38.209Z,45.77
2023-07-31T14:52:05.426Z,45.95
2023-07-31T14:54:31.817Z,45.95
2023-07-31T14:56:59.970Z,46.53
2023-07-31T14:59:26.831Z,46.52
2023-07-31T15:01:53.862Z,46.67
2023-07-31T15:04:20.573Z,46.23
2023-07-31T15:06:47.970Z,46.62
2023-07-31T15:09:14.496Z,46.75
2023-07-31T15:11:41.250Z,46.77
2023-07-31T15:14:09.381Z,47.39
2023-07-31T15:16:36.300Z,47.93
2023-07-31T15:19:03.235Z,48.41
2023-07-31T15:21:29.788Z,48.11
2023-07-31T15:23:56.545Z,48.32
2023-07-31T15:26:23.257Z,48.79
2023-07-31T15:29:02.963Z,48.90
2023-07-31T15:31:29.220Z,49.27
2023-07-31T15:33:55.818Z,49.08
2023-07-31T15:36:23.082Z,48.83
2023-07-31T15:38:51.570Z,49.46
2023-07-31T15:41:21.157Z,49.87
2023-07-31T15:43:49.193Z,50.25
2023-07-31T15:46:16.334Z,50.29
2023-07-31T15:48:42.889Z,50.84
2023-07-31T15:51:10.173Z,51.49
2023-07-31T15:53:36.808Z,51.13
2023-07-31T15:56:03.362Z,50.42
2023-07-31T15:58:30.290Z,51.21
2023-07-31T16:00:56.932Z,50.67
2023-07-31T16:03:23.468Z,49.16
2023-07-31T16:05:50.460Z,48.97
2023-07-31T16:08:17.339Z,48.48
2023-07-31T16:10:44.150Z,47.71
2023-07-31T16:13:11.078Z,47.47
2023-07-31T16:15:38.183Z,47.49
2023-07-31T16:18:04.890Z,47.58
2023-07-31T16:20:31.869Z,47.72
2023-07-31T16:23:11.185Z,47.69
2023-07-31T16:25:38.070Z,47.95
2023-07-31T16:28:04.676Z,47.95
2023-07-31T16:30:31.890Z,47.67
2023-07-31T16:32:59.010Z,47.75
2023-07-31T16:35:25.633Z,47.91
2023-07-31T16:37:52.237Z,47.90
2023-07-31T16:40:18.975Z,47.93
2023-07-31T16:42:45.463Z,48.37
2023-07-31T16:45:11.862Z,48.62
2023-07-31T16:47:38.518Z,49.17
2023-07-31T16:50:05.363Z,49.05
2023-07-31T16:52:31.962Z,49.17
2023-07-31T16:54:59.103Z,50.68
2023-07-31T16:57:26.398Z,49.82
2023-07-31T16:59:52.883Z,50.14
2023-07-31T17:02:19.884Z,50.79
2023-07-31T17:04:47.182Z,50.69
2023-07-31T17:07:14.296Z,50.88
2023-07-31T17:13:21.922Z,51.61
2023-07-31T17:15:48.515Z,52.17
2023-07-31T17:18:15.655Z,52.79
2023-07-31T17:20:42.082Z,54.00
2023-07-31T17:23:08.486Z,54.85
2023-07-31T17:25:35.099Z,55.21
2023-07-31T17:28:03.944Z,54.92
2023-07-31T17:30:30.465Z,54.96
2023-07-31T17:32:57.231Z,54.83
2023-07-31T17:35:23.990Z,54.78
2023-07-31T17:37:50.467Z,55.18
2023-07-31T17:40:17.584Z,54.93
2023-07-31T17:43:14.668Z,55.22
2023-07-31T17:45:46.087Z,54.87
2023-07-31T17:48:14.608Z,54.97
2023-07-31T17:50:43.463Z,55.35
2023-07-31T17:53:13.179Z,55.67
2023-07-31T17:55:41.386Z,56.12
2023-07-31T17:58:08.267Z,56.64
2023-07-31T18:00:36.127Z,57.34
2023-07-31T18:03:09.080Z,57.54
2023-07-31T18:05:39.441Z,57.60
2023-07-31T18:08:07.760Z,58.35
2023-07-31T18:10:34.826Z,58.32
2023-07-31T18:13:01.942Z,58.60
2023-07-31T18:15:28.602Z,58.89
2023-07-31T18:17:55.425Z,59.58
2023-07-31T18:20:25.285Z,60.12
2023-07-31T18:22:51.840Z,59.80
2023-07-31T18:25:18.182Z,60.03
2023-07-31T18:27:44.722Z,60.38
2023-07-31T18:30:14.570Z,60.25
2023-07-31T18:32:41.996Z,60.50
2023-07-31T18:35:13.275Z,60.75
2023-07-31T18:37:39.942Z,60.97
2023-07-31T18:40:10.559Z,61.27
2023-07-31T18:42:41.583Z,61.48
2023-07-31T18:45:15.226Z,61.62
2023-07-31T18:47:41.991Z,61.88
2023-07-31T18:50:08.807Z,61.96
2023-07-31T18:52:36.814Z,61.96
2023-07-31T18:55:03.590Z,62.00
2023-07-31T18:57:30.178Z,62.06
2023-07-31T18:59:56.855Z,62.02
2023-07-31T19:02:23.662Z,62.18
2023-07-31T19:04:50.241Z,63.10
2023-07-31T19:07:16.985Z,63.70
2023-07-31T19:09:51.196Z,63.70
2023-07-31T19:12:20.329Z,63.04
2023-07-31T19:14:47.845Z,62.09
2023-07-31T19:17:14.407Z,61.59
2023-07-31T19:19:43.563Z,61.11
2023-07-31T19:22:10.761Z,60.29
2023-07-31T19:24:37.784Z,61.92
2023-07-31T19:27:08.664Z,61.79
2023-07-31T19:29:38.817Z,61.78
2023-07-31T19:32:05.937Z,60.40
2023-07-31T19:34:33.391Z,61.04
2023-07-31T19:37:00.547Z,61.00
2023-07-31T19:39:27.105Z,61.19
2023-07-31T19:41:53.771Z,61.02
2023-07-31T19:44:20.478Z,61.30
2023-07-31T19:46:46.935Z,61.11
2023-07-31T19:49:13.683Z,60.97
2023-07-31T19:51:40.529Z,61.10
2023-07-31T19:54:07.308Z,61.02
2023-07-31T19:56:34.336Z,61.05
2023-07-31T19:59:01.074Z,60.88
2023-07-31T20:01:27.891Z,60.86
2023-07-31T20:03:55.372Z,60.83
2023-07-31T20:06:25.391Z,60.88
2023-07-31T20:08:51.958Z,60.55
2023-07-31T20:11:18.430Z,60.57
2023-07-31T20:13:45.612Z,60.80
2023-07-31T20:16:12.250Z,61.12
2023-07-31T20:18:41.829Z,61.39
2023-07-31T20:21:08.657Z,61.79
2023-07-31T20:23:42.946Z,62.08
2023-07-31T20:26:10.710Z,62.37
2023-07-31T20:28:37.323Z,62.10
2023-07-31T20:31:03.998Z,62.26
2023-07-31T20:33:31.382Z,62.21
2023-07-31T20:35:58.132Z,62.48
2023-07-31T20:38:24.837Z,62.36
2023-07-31T20:40:52.589Z,62.49
2023-07-31T20:43:19.397Z,62.33
2023-07-31T20:45:46.092Z,62.45
2023-07-31T20:48:14.263Z,62.68
2023-07-31T20:50:40.934Z,63.32
2023-07-31T20:53:07.699Z,63.42
2023-07-31T20:55:34.328Z,63.21
2023-07-31T20:58:01.300Z,63.24
2023-07-31T21:00:27.914Z,63.38
2023-07-31T21:02:55.207Z,63.20
2023-07-31T21:05:22.598Z,63.34
2023-07-31T21:07:49.396Z,63.18
2023-07-31T21:10:16.110Z,63.18
2023-07-31T21:12:42.586Z,63.23
2023-07-31T21:15:10.607Z,63.31
2023-07-31T21:17:38.720Z,63.38
2023-07-31T21:20:05.997Z,63.55
2023-07-31T21:22:32.386Z,63.51
2023-07-31T21:24:59.237Z,63.90
2023-07-31T21:27:25.720Z,63.86
2023-07-31T21:29:52.978Z,63.73
2023-07-31T21:32:20.246Z,63.99
2023-07-31T21:34:46.913Z,64.26
2023-07-31T21:37:13.434Z,64.34
2023-07-31T21:39:40.313Z,64.37
2023-07-31T21:42:07.626Z,64.21
2023-07-31T21:44:35.301Z,64.21
2023-07-31T21:47:02.085Z,64.56
2023-07-31T21:49:28.674Z,64.32
2023-07-31T21:51:55.174Z,65.02
2023-07-31T21:54:21.854Z,65.36
2023-07-31T21:56:48.502Z,65.26
2023-07-31T21:59:15.115Z,65.49
2023-07-31T22:01:41.930Z,65.23
2023-07-31T22:04:09.145Z,65.27
2023-07-31T22:06:35.748Z,65.43
2023-07-31T22:09:02.498Z,65.13
2023-07-31T22:11:29.022Z,65.94
2023-07-31T22:14:01.979Z,66.28
2023-07-31T22:16:29.256Z,66.44
2023-07-31T22:18:55.779Z,66.39
2023-07-31T22:21:22.327Z,65.82
2023-07-31T22:23:49.175Z,65.88
2023-07-31T22:26:15.580Z,66.27
2023-07-31T22:28:42.136Z,66.46
2023-07-31T22:31:09.025Z,66.63
2023-07-31T22:33:36.551Z,67.10
2023-07-31T22:36:02.963Z,67.39
2023-07-31T22:38:29.716Z,67.17
2023-07-31T22:40:57.754Z,67.36
2023-07-31T22:43:24.326Z,67.44
2023-07-31T22:45:51.109Z,68.42
2023-07-31T22:48:17.642Z,68.89
2023-07-31T22:50:44.171Z,68.36
2023-07-31T22:53:11.046Z,68.09
2023-07-31T22:55:37.483Z,68.56
2023-07-31T22:58:04.065Z,69.43
2023-07-31T23:00:31.053Z,68.54
2023-07-31T23:02:57.492Z,68.69
2023-07-31T23:05:24.495Z,68.47
2023-07-31T23:07:51.089Z,68.42
2023-07-31T23:10:17.831Z,68.93
2023-07-31T23:12:44.488Z,68.89
2023-07-31T23:15:11.071Z,69.08
2023-07-31T23:17:37.518Z,69.68
2023-07-31T23:20:04.165Z,68.97
2023-07-31T23:22:31.469Z,69.62
2023-07-31T23:24:57.993Z,69.42
2023-07-31T23:27:24.517Z,69.12
2023-07-31T23:29:51.709Z,70.34
2023-07-31T23:32:18.491Z,69.86
2023-07-31T23:34:44.971Z,69.68
2023-07-31T23:37:11.508Z,70.16
2023-07-31T23:39:38.031Z,69.48
2023-07-31T23:42:04.695Z,69.33
2023-07-31T23:44:31.289Z,69.41
2023-07-31T23:46:57.755Z,69.43
2023-07-31T23:49:24.214Z,69.52
2023-07-31T23:51:50.916Z,69.68
2023-07-31T23:54:17.410Z,69.85
2023-07-31T23:56:44.375Z,69.83
2023-07-31T23:59:12.528Z,69.88
